createdAt,value
2023-03-22T00:00:15.205Z,100722.94
2023-03-22T00:02:41.771Z,100726.41
2023-03-22T00:05:08.881Z,100722.50
2023-03-22T00:07:35.305Z,100706.09
2023-03-22T00:10:01.658Z,100718.84
2023-03-22T00:12:28.074Z,100727.72
2023-03-22T00:14:55.052Z,100735.50
2023-03-22T00:17:22.992Z,100721.19
2023-03-22T00:19:49.738Z,100721.09
2023-03-22T00:22:16.173Z,100724.38
2023-03-22T00:24:42.691Z,100710.91
2023-03-22T00:27:09.082Z,100709.81
2023-03-22T00:29:35.631Z,100689.31
2023-03-22T00:32:02.718Z,100708.16
2023-03-22T00:34:33.421Z,100723.78
2023-03-22T00:37:00.025Z,100713.00
2023-03-22T00:39:27.034Z,100709.69
2023-03-22T00:41:53.584Z,100700.84
2023-03-22T00:44:20.341Z,100700.69
2023-03-22T00:46:46.818Z,100677.91
2023-03-22T00:49:13.231Z,100686.56
2023-03-22T00:51:39.647Z,100677.63
2023-03-22T00:54:06.147Z,100678.41
2023-03-22T00:56:33.824Z,100665.53
2023-03-22T00:59:00.304Z,100679.09
2023-03-22T01:01:26.821Z,100674.28
2023-03-22T01:03:53.308Z,100675.25
2023-03-22T01:06:19.818Z,100675.75
2023-03-22T01:08:46.290Z,100672.28
2023-03-22T01:11:12.825Z,100661.34
2023-03-22T01:13:39.406Z,100662.88
2023-03-22T01:16:06.961Z,100663.94
2023-03-22T01:18:34.170Z,100651.06
2023-03-22T01:21:00.688Z,100652.97
2023-03-22T01:23:27.273Z,100650.97
2023-03-22T01:25:53.659Z,100631.97
2023-03-22T01:28:20.233Z,100654.63
2023-03-22T01:30:46.725Z,100645.50
2023-03-22T01:33:13.182Z,100637.50
2023-03-22T01:35:39.746Z,100634.06
2023-03-22T01:38:06.224Z,100625.00
2023-03-22T01:40:33.405Z,100628.28
2023-03-22T01:42:59.789Z,100633.28
2023-03-22T01:45:37.480Z,100616.19
2023-03-22T01:48:12.903Z,100624.72
2023-03-22T01:50:42.839Z,100621.09
2023-03-22T01:53:13.634Z,100602.88
2023-03-22T01:55:41.559Z,100608.00
2023-03-22T01:58:08.322Z,100606.25
2023-03-22T02:00:34.794Z,100598.66
2023-03-22T02:03:01.490Z,100601.16
2023-03-22T02:05:28.358Z,100586.41
2023-03-22T02:07:54.781Z,100596.13
2023-03-22T02:10:26.259Z,100590.34
2023-03-22T02:13:11.470Z,100586.59
2023-03-22T02:15:56.019Z,100593.94
2023-03-22T02:18:36.765Z,100580.53
2023-03-22T02:21:19.857Z,100577.75
2023-03-22T02:24:14.078Z,100566.09
2023-03-22T02:27:22.115Z,100569.44
2023-03-22T02:29:59.871Z,100561.34
2023-03-22T02:32:37.573Z,100552.19
2023-03-22T02:35:23.767Z,100553.19
2023-03-22T02:37:59.316Z,100545.84
2023-03-22T02:40:32.208Z,100542.00
2023-03-22T02:43:13.666Z,100535.66
2023-03-22T02:45:45.230Z,100539.28
2023-03-22T02:48:30.236Z,100531.97
2023-03-22T02:51:03.828Z,100529.28
2023-03-22T02:53:40.670Z,100525.81
2023-03-22T02:56:31.795Z,100531.78
2023-03-22T02:59:01.528Z,100535.88
2023-03-22T03:01:42.126Z,100534.47
2023-03-22T03:04:14.239Z,100525.81
2023-03-22T03:06:46.082Z,100523.53
2023-03-22T03:09:17.996Z,100514.09
2023-03-22T03:11:50.517Z,100513.72
2023-03-22T03:14:34.992Z,100517.41
2023-03-22T03:17:29.529Z,100512.25
2023-03-22T03:20:01.147Z,100507.25
2023-03-22T03:22:40.536Z,100502.25
2023-03-22T03:25:22.845Z,100495.13
2023-03-22T03:28:23.151Z,100493.97
2023-03-22T03:31:15.983Z,100501.94
2023-03-22T03:33:53.669Z,100483.09
2023-03-22T03:36:21.821Z,100480.75
2023-03-22T03:38:52.111Z,100476.59
2023-03-22T03:41:23.754Z,100477.94
2023-03-22T03:43:51.351Z,100471.78
2023-03-22T03:46:17.790Z,100473.53
2023-03-22T03:48:48.567Z,100489.97
2023-03-22T03:51:15.257Z,100478.16
2023-03-22T03:53:41.788Z,100482.78
2023-03-22T03:56:09.100Z,100479.09
2023-03-22T03:58:35.521Z,100481.78
2023-03-22T04:01:03.939Z,100486.22
2023-03-22T04:03:30.708Z,100481.59
2023-03-22T04:05:57.131Z,100476.97
2023-03-22T04:08:23.497Z,100477.75
2023-03-22T04:10:51.766Z,100463.50
2023-03-22T04:13:21.467Z,100471.59
2023-03-22T04:15:52.578Z,100463.28
2023-03-22T04:18:19.658Z,100454.59
2023-03-22T04:20:46.770Z,100461.94
2023-03-22T04:23:13.209Z,100455.78
2023-03-22T04:25:39.633Z,100452.09
2023-03-22T04:28:06.047Z,100455.47
2023-03-22T04:30:36.278Z,100452.56
2023-03-22T04:33:07.159Z,100447.06
2023-03-22T04:35:36.444Z,100448.97
2023-03-22T04:38:02.941Z,100446.09
2023-03-22T04:40:35.220Z,100438.00
2023-03-22T04:43:04.093Z,100445.34
2023-03-22T04:45:32.477Z,100438.88
2023-03-22T04:47:59.808Z,100429.81
2023-03-22T04:50:28.159Z,100428.94
2023-03-22T04:52:54.639Z,100424.53
2023-03-22T04:55:21.222Z,100421.75
2023-03-22T04:57:47.628Z,100414.41
2023-03-22T05:00:15.580Z,100417.41
2023-03-22T05:02:42.091Z,100421.16
2023-03-22T05:05:08.691Z,100408.44
2023-03-22T05:07:35.302Z,100401.34
2023-03-22T05:10:01.859Z,100408.88
2023-03-22T05:12:28.485Z,100393.53
2023-03-22T05:14:54.945Z,100416.63
2023-03-22T05:17:21.476Z,100405.66
2023-03-22T05:19:48.096Z,100413.53
2023-03-22T05:22:14.513Z,100398.13
2023-03-22T05:24:41.051Z,100408.25
2023-03-22T05:27:07.460Z,100383.47
2023-03-22T05:29:36.702Z,100406.56
2023-03-22T05:32:04.052Z,100388.31
2023-03-22T05:34:35.634Z,100386.78
2023-03-22T05:37:02.814Z,100382.16
2023-03-22T05:39:29.504Z,100386.69
2023-03-22T05:41:55.986Z,100367.81
2023-03-22T05:44:22.427Z,100386.78
2023-03-22T05:46:48.898Z,100381.97
2023-03-22T05:49:15.421Z,100377.53
2023-03-22T05:51:42.589Z,100377.63
2023-03-22T05:54:09.675Z,100372.13
2023-03-22T05:56:36.335Z,100372.88
2023-03-22T05:59:04.509Z,100366.72
2023-03-22T06:01:30.984Z,100357.69
2023-03-22T06:03:57.509Z,100363.28
2023-03-22T06:06:24.037Z,100363.47
2023-03-22T06:08:50.477Z,100364.47
2023-03-22T06:11:18.530Z,100355.63
2023-03-22T06:13:44.960Z,100364.47
2023-03-22T06:16:11.498Z,100360.03
2023-03-22T06:18:38.014Z,100362.84
2023-03-22T06:21:04.757Z,100365.72
2023-03-22T06:23:31.250Z,100356.78
2023-03-22T06:25:57.678Z,100357.84
2023-03-22T06:28:26.522Z,100357.41
2023-03-22T06:30:53.058Z,100349.31
2023-03-22T06:33:19.540Z,100351.06
2023-03-22T06:35:45.996Z,100360.09
2023-03-22T06:38:13.335Z,100357.50
2023-03-22T06:40:40.066Z,100356.66
2023-03-22T06:43:07.441Z,100359.44
2023-03-22T06:45:34.107Z,100346.94
2023-03-22T06:48:01.161Z,100353.19
2023-03-22T06:50:28.795Z,100345.19
2023-03-22T06:52:55.491Z,100340.69
2023-03-22T06:55:22.213Z,100351.66
2023-03-22T06:57:48.703Z,100333.97
2023-03-22T07:00:16.026Z,100343.03
2023-03-22T07:02:42.605Z,100351.22
2023-03-22T07:05:09.338Z,100349.28
2023-03-22T07:07:35.777Z,100349.72
2023-03-22T07:10:02.146Z,100345.19
2023-03-22T07:12:28.586Z,100361.19
2023-03-22T07:14:55.048Z,100340.28
2023-03-22T07:17:21.500Z,100339.09
2023-03-22T07:19:47.927Z,100345.03
2023-03-22T07:22:14.409Z,100341.16
2023-03-22T07:24:53.855Z,100348.28
2023-03-22T07:27:22.902Z,100350.47
2023-03-22T07:29:49.331Z,100326.72
2023-03-22T07:32:16.331Z,100339.91
2023-03-22T07:34:42.829Z,100335.47
2023-03-22T07:37:09.575Z,100338.91
2023-03-22T07:39:36.298Z,100337.97
2023-03-22T07:42:03.136Z,100331.06
2023-03-22T07:44:29.562Z,100341.50
2023-03-22T07:46:56.438Z,100332.97
2023-03-22T07:49:22.907Z,100333.47
2023-03-22T07:51:49.370Z,100324.09
2023-03-22T07:54:30.612Z,100336.25
2023-03-22T07:56:59.532Z,100330.09
2023-03-22T07:59:26.332Z,100332.03
2023-03-22T08:01:52.772Z,100328.78
2023-03-22T08:04:20.933Z,100323.63
2023-03-22T08:06:47.428Z,100324.78
2023-03-22T08:09:13.924Z,100331.34
2023-03-22T08:11:40.468Z,100313.25
2023-03-22T08:14:06.923Z,100332.13
2023-03-22T08:16:33.405Z,100319.69
2023-03-22T08:18:59.872Z,100336.94
2023-03-22T08:21:27.390Z,100330.47
2023-03-22T08:23:54.018Z,100325.31
2023-03-22T08:26:20.561Z,100325.31
2023-03-22T08:28:46.940Z,100326.38
2023-03-22T08:31:17.496Z,100310.97
2023-03-22T08:33:45.112Z,100316.47
2023-03-22T08:36:16.334Z,100310.31
2023-03-22T08:38:44.812Z,100312.16
2023-03-22T08:41:15.823Z,100307.63
2023-03-22T08:43:42.868Z,100310.75
2023-03-22T08:46:09.478Z,100310.00
2023-03-22T08:48:37.814Z,100328.75
2023-03-22T08:51:06.421Z,100302.91
2023-03-22T08:53:32.917Z,100317.53
2023-03-22T08:56:01.731Z,100318.50
2023-03-22T08:58:28.433Z,100317.63
2023-03-22T09:00:55.001Z,100319.66
2023-03-22T09:03:22.859Z,100306.09
2023-03-22T09:05:49.326Z,100320.22
2023-03-22T09:08:19.639Z,100308.69
2023-03-22T09:10:51.150Z,100308.47
2023-03-22T09:13:18.332Z,100305.03
2023-03-22T09:15:45.231Z,100301.91
2023-03-22T09:18:11.965Z,100308.06
2023-03-22T09:20:39.019Z,100323.06
2023-03-22T09:23:05.823Z,100324.03
2023-03-22T09:25:32.750Z,100306.03
2023-03-22T09:27:59.132Z,100335.00
2023-03-22T09:30:25.544Z,100319.06
2023-03-22T09:32:52.069Z,100335.41
2023-03-22T09:35:18.695Z,100319.25
2023-03-22T09:37:45.631Z,100308.28
2023-03-22T09:40:13.291Z,100321.75
2023-03-22T09:42:46.330Z,100322.28
2023-03-22T09:45:32.114Z,100314.97
2023-03-22T09:47:59.702Z,100316.03
2023-03-22T09:50:30.335Z,100328.66
2023-03-22T09:52:58.039Z,100337.50
2023-03-22T09:55:45.971Z,100335.56
2023-03-22T09:58:30.744Z,100338.03
2023-03-22T10:01:02.733Z,100337.09
2023-03-22T10:03:35.385Z,100339.56
2023-03-22T10:06:09.263Z,100344.53
2023-03-22T10:08:35.620Z,100338.28
2023-03-22T10:11:02.467Z,100320.00
2023-03-22T10:13:40.507Z,100324.53
2023-03-22T10:16:11.991Z,100325.81
2023-03-22T10:18:43.464Z,100311.25
2023-03-22T10:21:12.330Z,100310.50
2023-03-22T10:23:49.596Z,100308.97
2023-03-22T10:26:48.636Z,100315.56
2023-03-22T10:29:38.921Z,100317.41
2023-03-22T10:32:22.519Z,100320.66
2023-03-22T10:34:49.448Z,100327.66
2023-03-22T10:37:34.490Z,100303.06
2023-03-22T10:40:06.766Z,100310.72
2023-03-22T10:42:36.742Z,100299.75
2023-03-22T10:45:14.779Z,100289.94
2023-03-22T10:47:58.038Z,100298.69
2023-03-22T10:50:30.247Z,100296.53
2023-03-22T10:52:59.556Z,100298.13
2023-03-22T10:55:26.428Z,100289.59
2023-03-22T10:58:15.655Z,100287.84
2023-03-22T11:00:48.246Z,100319.38
2023-03-22T11:03:41.561Z,100326.19
2023-03-22T11:06:17.440Z,100318.84
2023-03-22T11:09:01.679Z,100334.50
2023-03-22T11:11:34.635Z,100340.88
2023-03-22T11:14:22.837Z,100336.66
2023-03-22T11:17:06.196Z,100349.94
2023-03-22T11:19:38.297Z,100366.03
2023-03-22T11:22:15.775Z,100354.78
2023-03-22T11:24:42.339Z,100368.63
2023-03-22T11:27:26.748Z,100375.94
2023-03-22T11:29:58.644Z,100369.03
2023-03-22T11:32:36.363Z,100356.53
2023-03-22T11:35:11.695Z,100361.81
2023-03-22T11:37:49.828Z,100369.66
2023-03-22T11:40:27.780Z,100378.94
2023-03-22T11:42:56.904Z,100370.84
2023-03-22T11:45:30.717Z,100368.06
2023-03-22T11:48:07.448Z,100378.22
2023-03-22T11:50:37.141Z,100370.22
2023-03-22T11:53:06.784Z,100363.09
2023-03-22T11:55:36.381Z,100350.34
2023-03-22T11:58:04.431Z,100378.13
2023-03-22T12:00:37.145Z,100383.94
2023-03-22T12:03:10.672Z,100349.63
2023-03-22T12:05:41.463Z,100352.00
2023-03-22T12:08:30.980Z,100361.50
2023-03-22T12:11:12.023Z,100356.75
2023-03-22T12:14:00.331Z,100353.06
2023-03-22T12:16:32.934Z,100361.72
2023-03-22T12:19:12.424Z,100367.31
2023-03-22T12:21:39.684Z,100361.28
2023-03-22T12:24:18.646Z,100362.34
2023-03-22T12:26:45.886Z,100365.81
2023-03-22T12:29:18.741Z,100367.66
2023-03-22T12:32:15.860Z,100382.00
2023-03-22T12:34:48.142Z,100355.00
2023-03-22T12:37:19.356Z,100351.13
2023-03-22T12:40:06.142Z,100362.78
2023-03-22T12:42:47.607Z,100371.00
2023-03-22T12:45:24.911Z,100362.16
2023-03-22T12:47:57.979Z,100368.63
2023-03-22T12:50:33.320Z,100343.34
2023-03-22T12:53:02.309Z,100345.72
2023-03-22T12:55:39.040Z,100338.16
2023-03-22T12:58:07.539Z,100345.06
2023-03-22T13:00:53.564Z,100347.25
2023-03-22T13:03:29.867Z,100343.03
2023-03-22T13:06:06.760Z,100361.81
2023-03-22T13:09:09.767Z,100356.41
2023-03-22T13:11:36.515Z,100352.22
2023-03-22T13:14:02.967Z,100347.66
2023-03-22T13:16:48.875Z,100353.06
2023-03-22T13:19:36.410Z,100340.97
2023-03-22T13:22:41.566Z,100334.13
2023-03-22T13:25:12.890Z,100344.41
2023-03-22T13:27:45.145Z,100339.44
2023-03-22T13:30:36.997Z,100327.28
2023-03-22T13:33:09.723Z,100332.56
2023-03-22T13:35:54.233Z,100318.59
2023-03-22T13:38:27.225Z,100309.84
2023-03-22T13:40:59.958Z,100325.53
2023-03-22T13:43:33.223Z,100327.47
2023-03-22T13:46:19.886Z,100321.63
2023-03-22T13:48:46.858Z,100309.13
2023-03-22T13:51:22.606Z,100319.34
2023-03-22T13:53:56.828Z,100314.31
2023-03-22T13:56:44.492Z,100321.47
2023-03-22T13:59:12.534Z,100316.50
2023-03-22T14:01:47.584Z,100323.44
2023-03-22T14:04:22.561Z,100321.19
2023-03-22T14:07:11.763Z,100313.53
2023-03-22T14:09:51.504Z,100312.78
2023-03-22T14:12:36.975Z,100316.44
2023-03-22T14:15:06.904Z,100304.91
2023-03-22T14:17:43.820Z,100290.00
2023-03-22T14:20:35.774Z,100306.28
